createdAt,value
2019-04-16T00:02:13.027Z,98512.11
2019-04-16T00:05:05.569Z,98512.45
2019-04-16T00:07:54.853Z,98513.87
2019-04-16T00:10:44.277Z,98512.71
2019-04-16T00:13:30.673Z,98513.00
2019-04-16T00:16:02.848Z,98505.44
2019-04-16T00:18:33.506Z,98500.41
2019-04-16T00:21:38.506Z,98510.27
2019-04-16T00:24:24.739Z,98508.02
2019-04-16T00:26:59.343Z,98502.88
2019-04-16T00:29:32.559Z,98503.08
2019-04-16T00:32:09.403Z,98499.13
2019-04-16T00:34:39.599Z,98501.58
2019-04-16T00:37:10.541Z,98495.71
2019-04-16T00:39:41.229Z,98492.86
2019-04-16T00:42:11.416Z,98490.04
2019-04-16T00:44:41.690Z,98481.40
2019-04-16T00:47:12.068Z,98480.83
2019-04-16T00:49:42.419Z,98477.16
2019-04-16T00:52:12.687Z,98473.27
2019-04-16T00:54:43.288Z,98476.59
2019-04-16T00:57:17.789Z,98473.66
2019-04-16T00:59:45.779Z,98482.17
2019-04-16T01:02:16.102Z,98474.30
2019-04-16T01:04:46.485Z,98485.19
2019-04-16T01:07:17.331Z,98488.89
2019-04-16T01:09:47.510Z,98490.22
2019-04-16T01:12:17.806Z,98484.72
2019-04-16T01:14:47.987Z,98483.87
2019-04-16T01:17:18.633Z,98489.08
2019-04-16T01:19:48.999Z,98495.14
2019-04-16T01:22:19.651Z,98496.83
2019-04-16T01:24:52.565Z,98494.66
2019-04-16T01:27:30.287Z,98498.63
2019-04-16T01:30:04.920Z,98503.94
2019-04-16T01:32:55.178Z,98501.16
2019-04-16T01:35:43.321Z,98506.64
2019-04-16T01:38:38.793Z,98508.16
2019-04-16T01:41:11.689Z,98509.80
2019-04-16T01:43:42.261Z,98518.11
2019-04-16T01:46:12.892Z,98514.52
2019-04-16T01:48:43.148Z,98518.47
2019-04-16T01:51:15.536Z,98514.39
2019-04-16T01:53:45.748Z,98511.14
2019-04-16T01:56:16.456Z,98507.69
2019-04-16T01:58:47.555Z,98518.86
2019-04-16T02:01:18.207Z,98515.16
2019-04-16T02:03:49.545Z,98521.38
2019-04-16T02:06:20.252Z,98518.72
2019-04-16T02:08:51.668Z,98517.84
2019-04-16T02:11:21.963Z,98518.28
2019-04-16T02:13:52.263Z,98519.89
2019-04-16T02:19:36.982Z,98521.08
2019-04-16T02:22:07.514Z,98526.70
2019-04-16T02:24:37.774Z,98534.24
2019-04-16T02:27:08.049Z,98529.02
2019-04-16T02:29:38.691Z,98529.61
2019-04-16T02:32:08.920Z,98526.52
2019-04-16T02:34:39.514Z,98534.45
2019-04-16T02:37:09.724Z,98529.61
2019-04-16T02:39:48.993Z,98525.81
2019-04-16T02:42:11.837Z,98524.59
2019-04-16T02:44:48.893Z,98520.63
2019-04-16T02:47:15.160Z,98523.94
2019-04-16T02:49:45.421Z,98517.84
2019-04-16T02:52:31.413Z,98520.86
2019-04-16T02:55:15.871Z,98517.40
2019-04-16T02:58:01.813Z,98521.95
2019-04-16T03:00:56.047Z,98524.98
2019-04-16T03:03:32.087Z,98523.95
2019-04-16T03:06:02.665Z,98519.42
2019-04-16T03:08:35.787Z,98519.23
2019-04-16T03:11:05.120Z,98518.28
2019-04-16T03:13:35.413Z,98514.05
2019-04-16T03:16:29.182Z,98507.61
2019-04-16T03:19:03.573Z,98500.33
2019-04-16T03:21:34.625Z,98515.21
2019-04-16T03:24:07.991Z,98512.88
2019-04-16T03:26:37.461Z,98514.59
2019-04-16T03:29:07.668Z,98515.73
2019-04-16T03:31:37.938Z,98512.71
2019-04-16T03:34:08.525Z,98511.59
2019-04-16T03:36:39.177Z,98507.14
2019-04-16T03:39:12.415Z,98506.28
2019-04-16T03:41:41.847Z,98505.55
2019-04-16T03:44:12.477Z,98505.25
2019-04-16T03:46:46.119Z,98503.48
2019-04-16T03:49:15.022Z,98501.95
2019-04-16T03:51:45.613Z,98504.98
2019-04-16T03:54:19.077Z,98509.91
2019-04-16T03:56:47.823Z,98501.28
2019-04-16T03:59:19.208Z,98502.53
2019-04-16T04:01:50.297Z,98506.52
2019-04-16T04:04:21.055Z,98502.23
2019-04-16T04:06:51.975Z,98503.84
2019-04-16T04:09:23.115Z,98513.14
2019-04-16T04:11:54.585Z,98515.69
2019-04-16T04:14:25.296Z,98522.97
2019-04-16T04:16:56.273Z,98514.84
2019-04-16T04:19:27.177Z,98508.21
2019-04-16T04:21:57.764Z,98508.69
2019-04-16T04:24:28.509Z,98507.64
2019-04-16T04:27:00.052Z,98506.87
2019-04-16T04:29:30.327Z,98516.17
2019-04-16T04:32:03.430Z,98520.91
2019-04-16T04:34:32.709Z,98524.13
2019-04-16T04:37:03.347Z,98523.74
2019-04-16T04:39:34.014Z,98524.23
2019-04-16T04:42:04.327Z,98523.83
2019-04-16T04:44:36.911Z,98526.41
2019-04-16T04:47:07.067Z,98528.86
2019-04-16T04:49:37.279Z,98534.16
2019-04-16T04:52:08.078Z,98543.94
2019-04-16T04:54:38.900Z,98540.05
2019-04-16T04:57:09.196Z,98540.02
2019-04-16T04:59:39.516Z,98543.06
2019-04-16T05:02:13.959Z,98543.21
2019-04-16T05:05:01.759Z,98545.84
2019-04-16T05:07:32.529Z,98548.64
2019-04-16T05:10:04.597Z,98543.31
2019-04-16T05:12:35.272Z,98553.70
2019-04-16T05:15:06.397Z,98565.91
2019-04-16T05:17:38.561Z,98561.79
2019-04-16T05:20:09.071Z,98568.05
2019-04-16T05:22:39.689Z,98570.82
2019-04-16T05:25:10.437Z,98577.44
2019-04-16T05:27:41.581Z,98577.20
2019-04-16T05:30:12.264Z,98584.53
2019-04-16T05:32:42.427Z,98580.02
2019-04-16T05:35:13.143Z,98583.61
2019-04-16T05:37:43.703Z,98588.77
2019-04-16T05:40:14.084Z,98584.95
2019-04-16T05:42:44.487Z,98579.41
2019-04-16T05:45:16.993Z,98582.03
2019-04-16T05:47:48.984Z,98583.98
2019-04-16T05:50:19.507Z,98581.23
2019-04-16T05:52:49.763Z,98594.53
2019-04-16T05:55:25.515Z,98592.14
2019-04-16T05:57:58.130Z,98594.31
2019-04-16T06:00:42.762Z,98590.27
2019-04-16T06:03:13.371Z,98583.34
2019-04-16T06:05:44.002Z,98589.73
2019-04-16T06:08:14.299Z,98593.80
2019-04-16T06:10:49.700Z,98591.83
2019-04-16T06:13:47.903Z,98587.31
2019-04-16T06:16:37.527Z,98587.59
2019-04-16T06:19:25.544Z,98596.98
2019-04-16T06:22:13.356Z,98605.11
2019-04-16T06:24:54.441Z,98601.33
2019-04-16T06:27:35.022Z,98603.66
2019-04-16T06:30:36.988Z,98603.66
2019-04-16T06:33:26.218Z,98605.77
2019-04-16T06:36:18.372Z,98610.27
2019-04-16T06:39:08.092Z,98599.82
2019-04-16T06:41:56.006Z,98599.59
2019-04-16T06:44:29.787Z,98594.37
2019-04-16T06:47:23.715Z,98595.72
2019-04-16T06:50:09.102Z,98601.19
2019-04-16T06:52:58.276Z,98602.76
2019-04-16T06:55:36.739Z,98604.83
2019-04-16T06:58:21.828Z,98606.39
2019-04-16T07:01:12.505Z,98596.17
2019-04-16T07:04:06.745Z,98601.83
2019-04-16T07:07:07.769Z,98603.88
2019-04-16T07:09:45.572Z,98608.71
2019-04-16T07:12:21.143Z,98604.41
2019-04-16T07:14:51.681Z,98607.84
2019-04-16T07:17:22.497Z,98608.73
2019-04-16T07:19:53.577Z,98606.97
2019-04-16T07:22:23.968Z,98605.38
2019-04-16T07:25:03.855Z,98605.50
2019-04-16T07:27:39.939Z,98601.27
2019-04-16T07:30:38.472Z,98606.32
2019-04-16T07:33:36.590Z,98604.02
2019-04-16T07:36:14.253Z,98599.22
2019-04-16T07:38:54.439Z,98607.01
2019-04-16T07:41:43.883Z,98606.39
2019-04-16T07:44:19.330Z,98618.31
2019-04-16T07:47:08.643Z,98618.31
2019-04-16T07:50:10.238Z,98615.77
2019-04-16T07:52:45.426Z,98619.78
2019-04-16T07:55:32.526Z,98619.61
2019-04-16T07:58:02.796Z,98616.22
2019-04-16T08:00:40.327Z,98615.88
2019-04-16T08:03:07.431Z,98620.86
2019-04-16T08:05:40.659Z,98618.16
2019-04-16T08:08:09.583Z,98612.22
2019-04-16T08:10:40.198Z,98616.19
2019-04-16T08:13:16.565Z,98620.75
2019-04-16T08:15:46.778Z,98614.91
2019-04-16T08:18:17.514Z,98616.02
2019-04-16T08:21:00.559Z,98613.67
2019-04-16T08:23:45.007Z,98618.38
2019-04-16T08:26:15.250Z,98613.72
2019-04-16T08:28:45.617Z,98615.34
2019-04-16T08:31:19.936Z,98616.05
2019-04-16T08:33:50.429Z,98616.91
2019-04-16T08:36:20.905Z,98616.42
2019-04-16T08:38:51.205Z,98612.17
2019-04-16T08:41:21.776Z,98609.09
2019-04-16T08:43:53.441Z,98611.16
2019-04-16T08:46:23.766Z,98615.30
2019-04-16T08:48:54.692Z,98616.24
2019-04-16T08:51:30.702Z,98613.13
2019-04-16T08:53:57.093Z,98617.34
2019-04-16T08:56:27.379Z,98620.16
2019-04-16T08:59:00.930Z,98615.13
2019-04-16T09:01:31.400Z,98617.92
2019-04-16T09:04:03.080Z,98621.52
2019-04-16T09:06:33.571Z,98620.55
2019-04-16T09:09:18.049Z,98620.28
2019-04-16T09:11:48.977Z,98613.25
2019-04-16T09:14:20.965Z,98619.34
2019-04-16T09:16:59.888Z,98614.79
2019-04-16T09:19:31.055Z,98626.80
2019-04-16T09:22:02.102Z,98621.72
2019-04-16T09:24:45.232Z,98629.81
2019-04-16T09:27:34.329Z,98638.13
2019-04-16T09:30:31.735Z,98639.74
2019-04-16T09:33:24.408Z,98636.78
2019-04-16T09:36:22.549Z,98637.39
2019-04-16T09:38:57.624Z,98640.84
2019-04-16T09:41:34.007Z,98632.62
2019-04-16T09:44:04.431Z,98635.88
2019-04-16T09:46:50.499Z,98632.83
2019-04-16T09:49:06.661Z,98632.84
2019-04-16T09:51:37.204Z,98638.33
2019-04-16T09:54:12.446Z,98638.92
2019-04-16T09:56:39.529Z,98638.93
2019-04-16T09:59:28.739Z,98634.87
2019-04-16T10:02:18.746Z,98634.14
2019-04-16T10:04:49.933Z,98634.80
2019-04-16T10:07:20.343Z,98626.59
2019-04-16T10:09:51.450Z,98630.34
2019-04-16T10:12:23.258Z,98635.95
2019-04-16T10:14:53.963Z,98635.23
2019-04-16T10:17:24.845Z,98633.52
2019-04-16T10:19:55.622Z,98625.73
2019-04-16T10:22:27.450Z,98635.33
2019-04-16T10:25:15.991Z,98629.62
2019-04-16T10:28:08.787Z,98629.73
2019-04-16T10:30:46.204Z,98631.03
2019-04-16T10:33:16.583Z,98630.31
2019-04-16T10:35:47.975Z,98627.44
2019-04-16T10:38:49.881Z,98632.34
2019-04-16T10:41:43.597Z,98624.09
2019-04-16T10:44:30.790Z,98625.31
2019-04-16T10:47:35.599Z,98617.39
2019-04-16T10:50:24.358Z,98617.41
2019-04-16T10:53:12.776Z,98607.12
2019-04-16T10:55:57.118Z,98610.05
2019-04-16T10:58:46.170Z,98612.38
2019-04-16T11:01:24.387Z,98612.13
2019-04-16T11:04:14.078Z,98615.48
2019-04-16T11:06:46.399Z,98617.38
2019-04-16T11:09:16.951Z,98620.52
2019-04-16T11:11:47.189Z,98616.50
2019-04-16T11:14:17.496Z,98614.44
2019-04-16T11:16:50.650Z,98609.69
2019-04-16T11:19:20.845Z,98612.36
2019-04-16T11:21:51.151Z,98610.41
2019-04-16T11:24:21.827Z,98608.81
2019-04-16T11:26:52.413Z,98611.67
2019-04-16T11:29:23.975Z,98608.11
2019-04-16T11:31:54.271Z,98606.22
2019-04-16T11:34:24.746Z,98609.33
2019-04-16T11:36:58.178Z,98605.31
2019-04-16T11:39:28.424Z,98600.41
2019-04-16T11:41:58.782Z,98601.90
2019-04-16T11:44:29.312Z,98606.78
2019-04-16T11:46:59.536Z,98604.14
2019-04-16T11:49:29.768Z,98606.36
2019-04-16T11:52:00.606Z,98603.54
2019-04-16T11:54:31.611Z,98599.11
2019-04-16T11:57:02.353Z,98590.30
2019-04-16T11:59:33.130Z,98588.48
2019-04-16T12:02:10.493Z,98595.74
2019-04-16T12:05:08.773Z,98591.47
2019-04-16T12:07:46.906Z,98598.64
2019-04-16T12:10:33.788Z,98587.10
2019-04-16T12:13:29.036Z,98594.08
2019-04-16T12:16:07.427Z,98598.48
2019-04-16T12:19:12.998Z,98596.71
2019-04-16T12:22:04.834Z,98600.17
2019-04-16T12:25:00.263Z,98603.14
2019-04-16T12:27:52.557Z,98603.56
2019-04-16T12:30:51.519Z,98605.85
2019-04-16T12:33:40.694Z,98611.17
2019-04-16T12:36:29.972Z,98608.44
2019-04-16T12:39:08.588Z,98603.69
2019-04-16T12:42:01.444Z,98605.05
2019-04-16T12:44:50.050Z,98598.67
2019-04-16T12:47:37.100Z,98604.02
2019-04-16T12:50:22.809Z,98602.31
2019-04-16T12:53:11.959Z,98603.31
2019-04-16T12:56:08.883Z,98597.25
2019-04-16T12:59:04.409Z,98598.30
2019-04-16T13:02:02.648Z,98593.30
2019-04-16T13:05:01.287Z,98590.80
2019-04-16T13:07:49.994Z,98595.84
2019-04-16T13:10:45.385Z,98588.16
2019-04-16T13:13:40.873Z,98590.19
2019-04-16T13:16:36.618Z,98594.16
2019-04-16T13:19:25.155Z,98596.55
2019-04-16T13:21:59.882Z,98601.17
2019-04-16T13:24:39.873Z,98592.91
2019-04-16T13:27:14.704Z,98602.05
2019-04-16T13:29:45.211Z,98601.59
2019-04-16T13:32:15.542Z,98600.34
2019-04-16T13:34:45.773Z,98596.89
2019-04-16T13:37:15.976Z,98600.17
2019-04-16T13:39:53.653Z,98597.11
2019-04-16T13:42:24.693Z,98593.44
2019-04-16T13:45:17.553Z,98600.52
2019-04-16T13:47:54.786Z,98593.79
2019-04-16T13:50:39.919Z,98599.36
2019-04-16T13:53:18.317Z,98602.92
2019-04-16T13:56:26.358Z,98598.77
2019-04-16T13:59:21.806Z,98599.98
2019-04-16T14:01:59.932Z,98605.24
2019-04-16T14:04:31.725Z,98601.53
2019-04-16T14:07:02.618Z,98599.85
2019-04-16T14:09:33.543Z,98596.24
2019-04-16T14:12:03.798Z,98599.66
2019-04-16T14:14:34.098Z,98596.31
2019-04-16T14:17:10.014Z,98605.16
2019-04-16T14:19:37.919Z,98606.02
2019-04-16T14:22:09.820Z,98607.20
2019-04-16T14:24:40.417Z,98610.89
2019-04-16T14:27:13.829Z,98610.05
2019-04-16T14:29:43.091Z,98613.63
2019-04-16T14:32:14.320Z,98610.23
2019-04-16T14:34:58.966Z,98607.05
2019-04-16T14:37:29.589Z,98607.72
2019-04-16T14:40:21.500Z,98605.69
2019-04-16T14:42:57.459Z,98613.95
2019-04-16T14:45:49.965Z,98615.95
2019-04-16T14:48:08.893Z,98623.90
2019-04-16T14:50:39.119Z,98616.98
2019-04-16T14:53:09.412Z,98621.50
2019-04-16T14:55:59.841Z,98626.73
2019-04-16T14:58:41.468Z,98629.10
2019-04-16T15:01:29.599Z,98630.00
2019-04-16T15:04:28.046Z,98633.34
2019-04-16T15:07:29.594Z,98638.38
2019-04-16T15:10:28.563Z,98642.36
2019-04-16T15:13:22.691Z,98647.44
2019-04-16T15:16:11.018Z,98651.95
2019-04-16T15:18:56.658Z,98651.74
2019-04-16T15:21:44.575Z,98652.21
2019-04-16T15:24:24.405Z,98654.02
2019-04-16T15:27:22.457Z,98659.16
2019-04-16T15:29:58.266Z,98662.30
2019-04-16T15:33:07.106Z,98666.95
2019-04-16T15:35:43.709Z,98673.13
2019-04-16T15:38:29.606Z,98670.33
2019-04-16T15:41:17.439Z,98672.51
2019-04-16T15:43:57.619Z,98669.98
2019-04-16T15:46:41.230Z,98674.13
2019-04-16T15:49:49.691Z,98678.16
2019-04-16T15:52:39.052Z,98674.41
2019-04-16T15:55:27.504Z,98680.20
2019-04-16T15:58:22.713Z,98677.34
2019-04-16T16:01:05.019Z,98676.77
2019-04-16T16:03:53.110Z,98671.90
2019-04-16T16:06:25.498Z,98675.26
2019-04-16T16:09:09.581Z,98682.06
2019-04-16T16:11:51.212Z,98684.09
2019-04-16T16:14:22.052Z,98680.65
2019-04-16T16:16:52.619Z,98684.97
2019-04-16T16:19:23.426Z,98686.59
2019-04-16T16:21:54.408Z,98705.37
2019-04-16T16:24:25.034Z,98701.70
2019-04-16T16:26:55.874Z,98712.12
2019-04-16T16:29:26.136Z,98721.14
2019-04-16T16:31:56.388Z,98728.48
2019-04-16T16:34:26.685Z,98726.48
2019-04-16T16:36:56.964Z,98721.86
2019-04-16T16:39:28.306Z,98722.48
2019-04-16T16:42:00.054Z,98731.44
2019-04-16T16:44:30.312Z,98745.75
2019-04-16T16:47:06.532Z,98741.45
2019-04-16T16:49:36.795Z,98755.19
2019-04-16T16:52:29.294Z,98749.59
2019-04-16T16:55:02.486Z,98754.14
2019-04-16T16:57:44.489Z,98759.32
2019-04-16T17:00:24.032Z,98760.70
2019-04-16T17:03:10.011Z,98759.88
2019-04-16T17:05:41.606Z,98767.95
2019-04-16T17:08:11.898Z,98775.19
2019-04-16T17:10:43.024Z,98776.30
2019-04-16T17:13:17.029Z,98781.20
2019-04-16T17:15:45.941Z,98785.26
2019-04-16T17:18:16.349Z,98785.14
2019-04-16T17:20:50.212Z,98783.45
2019-04-16T17:23:19.171Z,98793.06
2019-04-16T17:25:49.473Z,98791.98
2019-04-16T17:28:20.294Z,98794.58
2019-04-16T17:30:50.617Z,98807.76
2019-04-16T17:33:21.563Z,98806.91
2019-04-16T17:35:51.871Z,98805.45
2019-04-16T17:38:22.327Z,98808.02
2019-04-16T17:40:59.678Z,98810.34
2019-04-16T17:44:00.507Z,98812.42
2019-04-16T17:46:44.677Z,98802.00
2019-04-16T17:49:36.860Z,98807.34
2019-04-16T17:52:14.422Z,98807.83
2019-04-16T17:54:55.475Z,98811.26
2019-04-16T17:57:35.300Z,98815.14
2019-04-16T18:00:20.204Z,98812.25
2019-04-16T18:03:10.070Z,98822.11
2019-04-16T18:06:02.816Z,98824.65
2019-04-16T18:08:58.217Z,98834.02
2019-04-16T18:11:41.039Z,98830.25
2019-04-16T18:14:28.247Z,98834.50
2019-04-16T18:17:27.630Z,98829.52
2019-04-16T18:20:15.925Z,98846.05
2019-04-16T18:23:04.238Z,98845.94
2019-04-16T18:25:56.829Z,98856.41
2019-04-16T18:28:29.916Z,98854.94
2019-04-16T18:31:24.376Z,98856.17
2019-04-16T18:34:13.603Z,98860.44
2019-04-16T18:36:50.279Z,98868.81
2019-04-16T18:39:37.128Z,98868.93
2019-04-16T18:42:11.982Z,98864.19
2019-04-16T18:45:07.262Z,98872.84
2019-04-16T18:47:45.113Z,98876.47
2019-04-16T18:50:22.194Z,98883.30
2019-04-16T18:52:51.555Z,98878.90
2019-04-16T18:55:22.593Z,98884.14
2019-04-16T18:57:53.216Z,98884.98
2019-04-16T19:00:38.144Z,98890.23
2019-04-16T19:03:14.635Z,98899.70
2019-04-16T19:05:41.153Z,98894.24
2019-04-16T19:08:11.534Z,98907.48
2019-04-16T19:10:42.283Z,98901.92
2019-04-16T19:13:13.994Z,98905.20
2019-04-16T19:15:44.847Z,98901.29
2019-04-16T19:18:19.575Z,98897.03
2019-04-16T19:20:51.488Z,98903.23
2019-04-16T19:23:22.052Z,98903.12
2019-04-16T19:25:55.411Z,98906.05
2019-04-16T19:28:24.985Z,98909.56
2019-04-16T19:30:56.663Z,98903.72
2019-04-16T19:33:27.522Z,98905.66
2019-04-16T19:35:59.472Z,98902.28
2019-04-16T19:38:29.787Z,98910.66
2019-04-16T19:40:59.996Z,98910.52
2019-04-16T19:43:34.122Z,98910.41
2019-04-16T19:46:02.952Z,98908.69
2019-04-16T19:48:35.927Z,98914.03
2019-04-16T19:51:07.211Z,98918.78
2019-04-16T19:53:38.464Z,98921.11
2019-04-16T19:56:08.991Z,98924.63
2019-04-16T19:58:39.253Z,98919.03
2019-04-16T20:01:11.963Z,98912.38
2019-04-16T20:03:43.499Z,98916.84
2019-04-16T20:06:14.088Z,98914.66
2019-04-16T20:08:44.413Z,98915.16
2019-04-16T20:11:14.736Z,98914.06
2019-04-16T20:13:46.519Z,98918.81
2019-04-16T20:16:17.248Z,98913.47
2019-04-16T20:18:51.239Z,98913.72
2019-04-16T20:21:21.292Z,98908.47
2019-04-16T20:23:51.632Z,98905.30
2019-04-16T20:26:25.782Z,98904.59
2019-04-16T20:28:57.917Z,98907.98
2019-04-16T20:31:28.302Z,98900.44
2019-04-16T20:33:58.569Z,98900.20
2019-04-16T20:36:29.000Z,98898.86
2019-04-16T20:39:00.237Z,98901.53
2019-04-16T20:41:32.581Z,98894.49
2019-04-16T20:44:02.840Z,98896.78
2019-04-16T20:46:33.411Z,98903.25
2019-04-16T20:49:09.118Z,98900.58
2019-04-16T20:51:36.818Z,98902.52
2019-04-16T20:54:12.869Z,98899.70
2019-04-16T20:56:40.798Z,98905.30
2019-04-16T20:59:11.885Z,98899.10
2019-04-16T21:01:42.270Z,98892.52
2019-04-16T21:04:12.534Z,98894.00
2019-04-16T21:06:43.174Z,98891.92
2019-04-16T21:09:13.807Z,98891.67
2019-04-16T21:11:44.155Z,98898.61
2019-04-16T21:14:14.933Z,98895.83
2019-04-16T21:16:45.495Z,98903.96
2019-04-16T21:19:23.199Z,98899.95
2019-04-16T21:21:48.953Z,98902.63
2019-04-16T21:24:20.664Z,98902.63
2019-04-16T21:26:51.919Z,98902.52
2019-04-16T21:29:33.460Z,98901.42
2019-04-16T21:32:03.680Z,98910.05
2019-04-16T21:34:46.082Z,98904.45
2019-04-16T21:37:47.793Z,98901.04
2019-04-16T21:40:23.137Z,98907.38
2019-04-16T21:42:50.500Z,98907.76
2019-04-16T21:45:20.791Z,98908.47
2019-04-16T21:47:54.775Z,98903.96
2019-04-16T21:50:23.512Z,98907.88
2019-04-16T21:52:55.579Z,98910.66
2019-04-16T21:55:26.520Z,98911.25
2019-04-16T21:57:57.129Z,98915.77
2019-04-16T22:00:48.115Z,98909.31
2019-04-16T22:03:21.098Z,98915.66
2019-04-16T22:05:52.152Z,98908.72
2019-04-16T22:08:22.415Z,98914.31
2019-04-16T22:10:53.052Z,98908.09
2019-04-16T22:13:23.804Z,98918.19
2019-04-16T22:15:57.142Z,98916.84
2019-04-16T22:18:26.684Z,98919.17
2019-04-16T22:20:57.998Z,98921.11
2019-04-16T22:23:29.682Z,98922.94
2019-04-16T22:26:01.364Z,98918.58
2019-04-16T22:28:31.976Z,98916.99
2019-04-16T22:31:02.669Z,98919.91
2019-04-16T22:33:32.925Z,98924.17
2019-04-16T22:36:03.253Z,98918.92
2019-04-16T22:38:34.223Z,98914.56
2019-04-16T22:41:23.626Z,98919.67
2019-04-16T22:44:08.482Z,98923.89
2019-04-16T22:46:43.085Z,98930.12
2019-04-16T22:49:13.382Z,98935.82
2019-04-16T22:51:44.099Z,98937.16
2019-04-16T22:54:17.700Z,98936.77
2019-04-16T22:56:51.831Z,98939.45
2019-04-16T22:59:22.572Z,98939.59
2019-04-16T23:01:53.855Z,98937.62
2019-04-16T23:04:25.866Z,98938.50
2019-04-16T23:06:57.058Z,98942.37
2019-04-16T23:09:29.315Z,98940.44
2019-04-16T23:11:59.595Z,98948.21
2019-04-16T23:14:31.695Z,98946.38
2019-04-16T23:17:02.209Z,98955.25
2019-04-16T23:19:32.498Z,98950.89
2019-04-16T23:22:02.810Z,98947.27
2019-04-16T23:24:33.286Z,98952.62
2019-04-16T23:27:06.058Z,98953.22
2019-04-16T23:29:35.439Z,98950.16
2019-04-16T23:32:05.670Z,98951.38
2019-04-16T23:34:38.163Z,98957.33
2019-04-16T23:37:07.848Z,98961.34
2019-04-16T23:39:38.537Z,98958.56
2019-04-16T23:42:09.085Z,98962.53
2019-04-16T23:45:16.864Z,98969.11
2019-04-16T23:48:04.749Z,98973.11
2019-04-16T23:51:06.548Z,98972.11
2019-04-16T23:53:54.147Z,98974.64
2019-04-16T23:56:30.779Z,98972.54
2019-04-16T23:59:05.174Z,98975.86
